Time;durP1;ratioP1;P1;durP2;ratioP2;P2;SDS_P1;SDS_P2;PMS_P1;PMS_P2;Temp;Humidity;BMP_temperature;BMP_pressure;BME280_temperature;BME280_humidity;BME280_pressure;Samples;Min_cycle;Max_cycle;Signal;HPM_P1;HPM_P2
2020/12/31 00:00:52;;;;;;;42.90;30.77;;;10.00;94.50;;;;;;5014021;28;20049;-78
2020/12/31 00:03:56;;;;;;;32.55;22.73;;;10.00;94.30;;;;;;5014119;28;20069;-78
2020/12/31 00:07:01;;;;;;;29.55;21.92;;;10.00;94.00;;;;;;5013758;28;20393;-78
2020/12/31 00:10:05;;;;;;;44.10;30.05;;;10.00;94.00;;;;;;5013715;28;20041;-78
2020/12/31 00:13:09;;;;;;;43.95;33.75;;;10.10;94.30;;;;;;5013952;28;20069;-78
2020/12/31 00:16:13;;;;;;;51.17;38.22;;;10.20;94.50;;;;;;5014850;28;20397;-79
2020/12/31 00:19:17;;;;;;;51.65;38.75;;;10.10;94.00;;;;;;5014293;28;20185;-78
2020/12/31 00:22:21;;;;;;;52.08;37.60;;;10.10;94.00;;;;;;5013220;28;20057;-78
2020/12/31 00:25:25;;;;;;;54.60;38.10;;;10.10;94.10;;;;;;5013775;28;20045;-78
2020/12/31 00:28:29;;;;;;;52.20;37.88;;;10.10;93.70;;;;;;5014065;28;20045;-78
2020/12/31 00:31:33;;;;;;;46.15;33.92;;;10.10;93.50;;;;;;5013744;28;20045;-79
2020/12/31 00:34:37;;;;;;;50.75;36.08;;;10.00;93.70;;;;;;5014100;28;20049;-78
2020/12/31 00:37:41;;;;;;;45.72;33.47;;;9.90;93.50;;;;;;5014873;28;20048;-78
2020/12/31 00:40:45;;;;;;;47.03;32.13;;;9.80;93.90;;;;;;5014830;28;20048;-78
2020/12/31 00:43:49;;;;;;;40.22;29.95;;;9.70;94.30;;;;;;5012660;28;20069;-78
2020/12/31 00:46:53;;;;;;;36.42;27.50;;;9.80;94.40;;;;;;5012654;28;20496;-79
2020/12/31 00:49:57;;;;;;;37.70;26.00;;;9.90;93.70;;;;;;5000699;28;20049;-79
2020/12/31 00:53:01;;;;;;;36.95;26.00;;;10.10;93.30;;;;;;5013256;28;20061;-79
2020/12/31 00:56:06;;;;;;;31.73;23.38;;;10.00;93.00;;;;;;5013188;28;20053;-78
2020/12/31 00:59:15;;;;;;;33.78;24.23;;;9.90;93.60;;;;;;5012565;28;20049;-78
2020/12/31 01:02:20;;;;;;;32.25;22.45;;;9.90;93.40;;;;;;5012028;28;20048;-78
2020/12/31 01:05:24;;;;;;;32.83;22.02;;;10.00;93.20;;;;;;5013127;28;20512;-78
2020/12/31 01:08:28;;;;;;;31.02;22.80;;;10.00;92.90;;;;;;5012792;28;20056;-78
2020/12/31 01:11:32;;;;;;;26.70;18.83;;;9.90;93.10;;;;;;5012542;28;20041;-78
2020/12/31 01:14:36;;;;;;;26.90;17.08;;;9.90;93.00;;;;;;5012027;28;20061;-78
2020/12/31 01:17:40;;;;;;;24.95;16.92;;;10.00;92.80;;;;;;5012021;28;20049;-78
2020/12/31 01:20:44;;;;;;;20.75;15.73;;;10.00;92.60;;;;;;5011115;28;20045;-78
2020/12/31 01:23:49;;;;;;;20.92;15.43;;;9.90;92.60;;;;;;5012274;28;20045;-78
2020/12/31 01:26:52;;;;;;;21.30;14.98;;;9.90;92.60;;;;;;5011517;28;20037;-78
2020/12/31 01:29:56;;;;;;;17.45;13.75;;;10.00;92.40;;;;;;5011754;28;20052;-79
2020/12/31 01:33:00;;;;;;;21.10;14.05;;;9.80;92.30;;;;;;5010847;28;20044;-79
2020/12/31 01:36:08;;;;;;;18.67;13.32;;;9.70;93.10;;;;;;5018253;28;20061;-79
2020/12/31 01:39:12;;;;;;;20.25;12.95;;;9.70;92.90;;;;;;5015365;28;20049;-79
2020/12/31 01:42:16;;;;;;;15.52;10.95;;;9.70;92.40;;;;;;5015375;28;20049;-79
2020/12/31 01:45:20;;;;;;;17.27;11.20;;;9.80;92.10;;;;;;5015256;28;20041;-79
2020/12/31 01:48:25;;;;;;;15.68;11.18;;;9.80;91.80;;;;;;5015436;28;20516;-78
2020/12/31 01:51:30;;;;;;;15.48;10.43;;;9.70;91.80;;;;;;5014974;28;20041;-78
2020/12/31 01:54:34;;;;;;;14.90;10.45;;;9.70;91.80;;;;;;5015071;28;20053;-78
2020/12/31 01:57:39;;;;;;;14.13;10.30;;;9.80;91.70;;;;;;5013927;28;20049;-79
2020/12/31 02:00:43;;;;;;;13.02;10.02;;;9.70;91.50;;;;;;5014769;28;20667;-78
2020/12/31 02:03:48;;;;;;;15.60;10.13;;;9.50;91.90;;;;;;5014253;28;20508;-79
2020/12/31 02:06:54;;;;;;;15.07;9.45;;;9.40;92.10;;;;;;5014834;28;20049;-78
2020/12/31 02:09:58;;;;;;;11.77;8.80;;;9.20;92.30;;;;;;5014518;28;20053;-79
2020/12/31 02:13:02;;;;;;;10.88;8.55;;;9.10;92.70;;;;;;5013806;28;20057;-79
2020/12/31 02:16:10;;;;;;;10.07;7.00;;;9.20;92.50;;;;;;5013617;28;20057;-79
2020/12/31 02:19:16;;;;;;;8.52;6.30;;;9.40;92.00;;;;;;5014125;28;20096;-79
2020/12/31 02:22:20;;;;;;;10.15;6.43;;;9.40;91.80;;;;;;5014355;28;20496;-78
2020/12/31 02:25:24;;;;;;;9.55;5.47;;;9.50;91.70;;;;;;5013819;28;20044;-78
2020/12/31 02:28:28;;;;;;;9.82;6.10;;;9.50;91.80;;;;;;5014353;28;20037;-78
2020/12/31 02:31:33;;;;;;;11.23;6.07;;;9.40;91.70;;;;;;5014598;28;20161;-79
2020/12/31 02:34:38;;;;;;;7.95;6.03;;;9.30;92.00;;;;;;5014207;28;20139;-78
2020/12/31 02:37:42;;;;;;;9.02;6.50;;;9.10;92.70;;;;;;5014326;28;20366;-79
2020/12/31 02:40:46;;;;;;;10.48;7.45;;;8.90;92.90;;;;;;5014309;28;20034;-79
2020/12/31 02:43:50;;;;;;;10.13;7.32;;;8.90;93.00;;;;;;5014264;28;20501;-79
2020/12/31 02:46:54;;;;;;;9.57;7.25;;;8.90;93.20;;;;;;5012857;28;20045;-78
2020/12/31 02:49:59;;;;;;;11.02;7.05;;;8.90;93.00;;;;;;5013315;28;20041;-79
2020/12/31 02:53:02;;;;;;;11.00;7.15;;;8.80;93.00;;;;;;5014426;28;20045;-79
2020/12/31 02:56:15;;;;;;;9.25;6.25;;;8.80;93.20;;;;;;5013871;28;20050;-78
2020/12/31 02:59:19;;;;;;;10.95;7.10;;;8.80;93.30;;;;;;5013674;28;20477;-79
2020/12/31 03:02:25;;;;;;;10.63;6.93;;;8.90;93.20;;;;;;5013196;28;20045;-78
2020/12/31 03:05:30;;;;;;;11.43;7.10;;;8.80;93.00;;;;;;5013780;28;20049;-78
2020/12/31 06:15:38;;;;;;;8.77;3.60;;;8.80;93.40;;;;;;5108322;27;20864;-78
2020/12/31 06:18:44;;;;;;;7.13;3.22;;;9.20;93.10;;;;;;5108896;28;20040;-78
2020/12/31 06:22:01;;;;;;;9.93;4.30;;;9.20;93.10;;;;;;5108785;28;20044;-78
2020/12/31 06:25:07;;;;;;;9.25;5.68;;;9.30;92.90;;;;;;5108522;28;20047;-78
2020/12/31 06:28:22;;;;;;;9.32;5.75;;;9.40;92.90;;;;;;5108616;28;20040;-78
2020/12/31 06:31:26;;;;;;;15.50;6.43;;;9.40;92.60;;;;;;5108746;28;20483;-79
2020/12/31 06:34:30;;;;;;;14.57;6.63;;;9.30;92.50;;;;;;5107551;28;20035;-78
2020/12/31 06:37:35;;;;;;;10.55;6.53;;;9.20;92.80;;;;;;5108317;28;20032;-78
2020/12/31 06:40:39;;;;;;;11.32;6.63;;;9.10;92.70;;;;;;5108747;28;20047;-78
2020/12/31 06:43:43;;;;;;;10.98;5.97;;;8.90;93.10;;;;;;5108398;28;20039;-79
2020/12/31 06:46:49;;;;;;;8.77;5.80;;;8.90;93.80;;;;;;5107708;28;20044;-79
2020/12/31 06:49:54;;;;;;;11.63;5.35;;;9.00;93.40;;;;;;5108627;28;20039;-79
2020/12/31 06:52:58;;;;;;;8.40;5.18;;;9.10;93.10;;;;;;5108056;28;20032;-79
2020/12/31 06:56:10;;;;;;;9.38;5.88;;;9.20;92.70;;;;;;5108196;28;20040;-75
2020/12/31 06:59:34;;;;;;;10.70;6.00;;;9.30;92.50;;;;;;5108040;28;20655;-75
2020/12/31 07:02:45;;;;;;;11.88;6.20;;;9.30;92.70;;;;;;5107971;28;20047;-75
2020/12/31 07:05:49;;;;;;;11.17;5.50;;;9.20;92.50;;;;;;5107366;28;20044;-77
2020/12/31 07:08:54;;;;;;;12.52;5.57;;;9.20;92.80;;;;;;5108232;28;20031;-77
2020/12/31 07:12:00;;;;;;;13.00;5.53;;;9.30;93.60;;;;;;5107957;28;20152;-75
2020/12/31 07:15:05;;;;;;;9.13;4.53;;;9.40;92.00;;;;;;5102443;28;20040;-77
2020/12/31 07:18:10;;;;;;;11.77;5.07;;;9.40;91.90;;;;;;5094659;28;20048;-76
2020/12/31 07:21:17;;;;;;;11.93;4.38;;;9.30;92.00;;;;;;5094062;28;20028;-74
2020/12/31 07:24:22;;;;;;;12.75;4.40;;;9.30;91.80;;;;;;5093152;28;20052;-73
2020/12/31 07:27:40;;;;;;;14.98;4.78;;;9.30;91.80;;;;;;5094149;28;20040;-73
2020/12/31 07:30:52;;;;;;;16.15;10.10;;;9.40;91.70;;;;;;5094312;28;20048;-77
2020/12/31 07:34:22;;;;;;;10.48;5.88;;;9.50;95.00;;;;;;5094541;28;20055;-75
2020/12/31 07:37:27;;;;;;;8.70;4.85;;;9.80;93.30;;;;;;5093517;28;20032;-73
2020/12/31 07:40:55;;;;;;;11.00;4.95;;;9.70;91.70;;;;;;5093415;28;20032;-74
2020/12/31 07:44:03;;;;;;;10.18;6.07;;;9.70;91.80;;;;;;5093334;28;20052;-74
2020/12/31 07:47:11;;;;;;;13.77;6.60;;;9.70;91.60;;;;;;5092896;28;20043;-74
2020/12/31 07:50:15;;;;;;;15.82;7.38;;;9.70;91.40;;;;;;5093505;28;20036;-74
2020/12/31 07:53:19;;;;;;;16.63;9.90;;;9.80;91.10;;;;;;5092602;28;20048;-71
2020/12/31 07:56:24;;;;;;;15.27;10.05;;;9.80;91.10;;;;;;5093359;28;20040;-72
2020/12/31 07:59:28;;;;;;;18.42;10.95;;;9.80;90.90;;;;;;5092459;28;20043;-72
2020/12/31 08:02:32;;;;;;;15.90;9.02;;;9.90;91.00;;;;;;5092704;28;20059;-71
2020/12/31 08:05:37;;;;;;;13.60;8.27;;;10.00;91.10;;;;;;5093182;28;20051;-72
2020/12/31 08:08:42;;;;;;;15.98;9.05;;;10.10;91.30;;;;;;5093006;28;20035;-75
2020/12/31 08:11:48;;;;;;;14.75;8.18;;;10.10;91.20;;;;;;5092043;28;20129;-73
2020/12/31 08:14:55;;;;;;;13.48;6.00;;;10.20;91.40;;;;;;5092665;28;20047;-82
2020/12/31 08:18:03;;;;;;;11.85;4.78;;;10.20;90.80;;;;;;5093160;28;20059;-79
2020/12/31 08:21:07;;;;;;;10.25;5.20;;;10.20;90.60;;;;;;5092948;28;20043;-77
2020/12/31 08:24:16;;;;;;;8.85;4.60;;;10.20;90.60;;;;;;5092420;28;20411;-74
2020/12/31 08:27:20;;;;;;;10.68;4.65;;;10.20;90.50;;;;;;5091930;28;20368;-72
2020/12/31 08:30:25;;;;;;;10.18;4.60;;;10.30;90.40;;;;;;5068382;28;20364;-72
2020/12/31 08:33:29;;;;;;;9.02;4.70;;;10.30;90.20;;;;;;5092392;28;20051;-72
2020/12/31 08:36:33;;;;;;;14.50;4.40;;;10.40;90.00;;;;;;5092237;28;20036;-72
2020/12/31 08:39:39;;;;;;;13.02;4.57;;;10.40;89.60;;;;;;5091474;28;20127;-72
2020/12/31 08:42:52;;;;;;;9.45;5.05;;;10.40;89.40;;;;;;5091215;28;20044;-72
2020/12/31 08:45:59;;;;;;;8.48;5.03;;;10.40;89.60;;;;;;5079848;28;20044;-72
2020/12/31 08:49:03;;;;;;;14.30;5.65;;;10.30;89.50;;;;;;5068168;28;20024;-72
2020/12/31 08:52:10;;;;;;;9.10;4.78;;;10.30;90.20;;;;;;5092185;28;20039;-74
2020/12/31 08:55:14;;;;;;;8.45;4.97;;;10.20;90.70;;;;;;5091952;28;20043;-72
2020/12/31 08:58:18;;;;;;;10.95;5.38;;;10.00;90.80;;;;;;5092279;28;20048;-75
2020/12/31 09:01:28;;;;;;;14.20;7.25;;;10.20;91.30;;;;;;5092199;28;20039;-75
2020/12/31 09:04:31;;;;;;;19.65;7.85;;;10.40;91.50;;;;;;5090813;28;20050;-73
2020/12/31 09:07:35;;;;;;;13.55;7.43;;;10.60;91.30;;;;;;5091779;28;20391;-77
2020/12/31 09:10:39;;;;;;;12.82;6.70;;;10.90;90.10;;;;;;5092023;28;20055;-71
2020/12/31 09:13:43;;;;;;;11.65;5.93;;;11.10;87.50;;;;;;5091480;28;20059;-72
2020/12/31 09:16:47;;;;;;;12.13;6.75;;;11.30;88.80;;;;;;5090457;28;20063;-70
2020/12/31 09:19:55;;;;;;;12.57;7.50;;;11.70;88.60;;;;;;5090862;28;20379;-70
2020/12/31 09:23:10;;;;;;;19.05;8.57;;;11.90;86.40;;;;;;5091921;28;20059;-78
2020/12/31 09:26:23;;;;;;;13.73;8.10;;;11.80;85.20;;;;;;5091660;28;20073;-80
2020/12/31 09:29:27;;;;;;;10.85;6.50;;;11.80;87.20;;;;;;5091043;28;20506;-73
2020/12/31 09:32:31;;;;;;;14.57;6.93;;;11.90;85.40;;;;;;5090681;28;20047;-72
2020/12/31 09:35:36;;;;;;;13.23;4.68;;;11.90;83.90;;;;;;5090047;28;20093;-79
2020/12/31 09:38:40;;;;;;;16.70;8.60;;;12.10;82.30;;;;;;5090213;28;20225;-70
2020/12/31 09:41:46;;;;;;;18.10;7.82;;;12.30;82.80;;;;;;5088441;28;20507;-73
2020/12/31 09:44:50;;;;;;;12.25;6.05;;;12.30;83.80;;;;;;5089635;28;20055;-74
2020/12/31 09:47:56;;;;;;;12.93;6.47;;;12.10;81.60;;;;;;5091291;28;20046;-75
2020/12/31 09:51:00;;;;;;;14.23;6.13;;;11.90;82.50;;;;;;5078326;28;20043;-75
2020/12/31 09:54:05;;;;;;;10.73;5.80;;;11.70;83.90;;;;;;5078480;28;20039;-75
2020/12/31 09:57:08;;;;;;;14.50;6.32;;;11.80;85.00;;;;;;5090272;28;20047;-76
2020/12/31 10:00:12;;;;;;;10.82;5.82;;;11.80;85.10;;;;;;5090038;28;20039;-76
2020/12/31 10:03:17;;;;;;;12.93;7.03;;;11.80;84.50;;;;;;5090793;28;20503;-76
2020/12/31 10:06:21;;;;;;;11.85;5.80;;;11.90;82.80;;;;;;5091197;28;20067;-77
2020/12/31 10:09:25;;;;;;;14.90;6.40;;;12.10;82.10;;;;;;5078494;28;20038;-76
2020/12/31 10:27:48;;;;;;;12.20;4.50;;;12.80;77.70;;;;;;5088245;27;20340;-73
2020/12/31 10:30:52;;;;;;;2.90;2.03;;;13.90;77.50;;;;;;5087431;28;20040;-72
2020/12/31 10:33:56;;;;;;;9.50;1.83;;;14.30;72.70;;;;;;5088089;28;20040;-72
2020/12/31 10:37:00;;;;;;;4.38;1.83;;;14.60;72.20;;;;;;5088600;28;20052;-73
2020/12/31 10:40:04;;;;;;;6.72;2.00;;;14.60;71.30;;;;;;5087528;28;20032;-73
2020/12/31 10:43:08;;;;;;;6.40;2.03;;;14.70;73.30;;;;;;5087985;28;20032;-73
2020/12/31 10:46:12;;;;;;;4.50;1.92;;;14.60;71.30;;;;;;5087883;28;20040;-73
2020/12/31 10:49:16;;;;;;;8.52;3.47;;;14.30;73.90;;;;;;5087152;28;20487;-74
2020/12/31 10:52:20;;;;;;;6.97;3.10;;;14.20;74.40;;;;;;5088019;28;20032;-71
2020/12/31 10:55:24;;;;;;;9.07;4.22;;;14.00;73.80;;;;;;5087406;28;20044;-72
2020/12/31 10:58:28;;;;;;;8.50;3.00;;;13.70;74.60;;;;;;5087525;28;20040;-74
2020/12/31 11:01:32;;;;;;;13.05;3.78;;;13.60;74.40;;;;;;5087609;28;20040;-73
2020/12/31 11:04:36;;;;;;;10.80;3.30;;;13.60;76.70;;;;;;5087670;28;20047;-74
2020/12/31 11:07:40;;;;;;;10.05;2.88;;;13.70;77.10;;;;;;5087039;28;20115;-71
2020/12/31 11:10:45;;;;;;;7.32;3.13;;;14.00;75.70;;;;;;5087440;28;20051;-71
2020/12/31 11:13:50;;;;;;;5.65;2.85;;;14.10;74.60;;;;;;5086730;28;20029;-71
2020/12/31 11:16:54;;;;;;;12.15;4.05;;;14.10;73.50;;;;;;5087090;28;20491;-72
2020/12/31 11:20:00;;;;;;;5.72;3.28;;;14.20;72.30;;;;;;5086545;28;20043;-71
2020/12/31 11:23:05;;;;;;;13.27;4.05;;;14.40;70.70;;;;;;5087391;28;20479;-71
2020/12/31 11:26:20;;;;;;;17.55;6.85;;;14.50;71.00;;;;;;5087036;28;20533;-71
2020/12/31 11:29:24;;;;;;;10.63;3.47;;;14.50;72.40;;;;;;5073716;28;20491;-70
2020/12/31 11:32:27;;;;;;;9.23;4.88;;;14.30;71.90;;;;;;5073576;28;20542;-69
2020/12/31 11:35:31;;;;;;;14.40;4.90;;;14.20;71.00;;;;;;5072287;28;20044;-68
2020/12/31 11:38:36;;;;;;;14.65;4.78;;;13.90;71.30;;;;;;5071984;28;20047;-69
2020/12/31 11:41:39;;;;;;;8.85;4.07;;;13.80;70.80;;;;;;5073382;28;20044;-69
2020/12/31 11:44:44;;;;;;;14.27;5.95;;;13.70;71.50;;;;;;5072554;28;20040;-69
2020/12/31 11:47:48;;;;;;;9.07;3.63;;;13.60;71.80;;;;;;5072011;28;20047;-69
2020/12/31 11:50:52;;;;;;;10.43;3.70;;;13.50;71.20;;;;;;5071166;28;20032;-69
2020/12/31 11:53:57;;;;;;;13.02;3.67;;;13.60;72.30;;;;;;5071424;28;20055;-69
2020/12/31 11:57:04;;;;;;;7.07;3.67;;;13.70;72.30;;;;;;5072531;28;20059;-69
2020/12/31 12:00:09;;;;;;;6.05;3.00;;;13.70;72.40;;;;;;5072143;28;20036;-69
2020/12/31 12:03:13;;;;;;;9.88;3.40;;;13.70;70.60;;;;;;5072911;28;20044;-69
2020/12/31 12:06:16;;;;;;;9.45;3.85;;;13.60;71.00;;;;;;5072376;28;20044;-69
2020/12/31 12:09:21;;;;;;;5.53;2.63;;;13.70;71.20;;;;;;5072760;28;20036;-69
2020/12/31 12:12:26;;;;;;;6.25;3.05;;;13.70;70.00;;;;;;5073148;28;20048;-69
2020/12/31 12:15:30;;;;;;;6.90;2.85;;;13.70;70.50;;;;;;5072770;28;20040;-69
2020/12/31 12:18:33;;;;;;;9.32;4.22;;;13.80;70.80;;;;;;5072737;28;20369;-69
2020/12/31 12:21:37;;;;;;;10.00;3.92;;;13.90;70.40;;;;;;5071967;28;20029;-69
2020/12/31 12:24:43;;;;;;;9.65;4.55;;;13.90;70.80;;;;;;5072956;28;20059;-69
2020/12/31 12:27:46;;;;;;;10.43;3.95;;;13.90;69.40;;;;;;5072409;28;20163;-69
2020/12/31 12:30:50;;;;;;;20.20;5.40;;;13.90;69.30;;;;;;5072421;28;20423;-69
2020/12/31 12:33:54;;;;;;;9.98;6.05;;;13.80;69.10;;;;;;5072418;28;20552;-69
2020/12/31 12:36:58;;;;;;;13.73;4.00;;;13.70;68.90;;;;;;5072062;28;20052;-69
2020/12/31 12:40:04;;;;;;;4.82;3.28;;;13.70;69.40;;;;;;5071039;28;20040;-69
2020/12/31 12:43:09;;;;;;;6.85;3.00;;;13.60;67.30;;;;;;5072295;28;20036;-69
2020/12/31 12:46:17;;;;;;;6.07;3.67;;;13.50;67.60;;;;;;5072020;28;20032;-69
2020/12/31 12:49:21;;;;;;;7.65;4.47;;;13.50;68.70;;;;;;5072182;28;20036;-69
2020/12/31 12:52:25;;;;;;;8.38;4.03;;;13.50;69.20;;;;;;5071961;28;20484;-70
2020/12/31 12:55:29;;;;;;;9.98;3.30;;;13.50;71.50;;;;;;5072121;28;20041;-70
2020/12/31 12:58:33;;;;;;;9.05;4.63;;;13.50;69.60;;;;;;5071906;28;20036;-70
2020/12/31 13:01:39;;;;;;;8.25;4.22;;;13.50;70.40;;;;;;5072020;28;20044;-69
2020/12/31 13:04:43;;;;;;;5.05;2.72;;;13.40;71.20;;;;;;5070897;28;20404;-69
2020/12/31 13:07:47;;;;;;;9.07;3.65;;;13.40;70.30;;;;;;5071574;28;20047;-70
2020/12/31 13:10:50;;;;;;;9.50;6.65;;;13.30;70.20;;;;;;5070667;28;20029;-70
2020/12/31 13:13:54;;;;;;;7.70;4.18;;;13.30;70.70;;;;;;5070695;28;20039;-69
2020/12/31 13:16:58;;;;;;;9.90;4.03;;;13.30;70.30;;;;;;5071602;28;20513;-70
2020/12/31 13:20:03;;;;;;;7.70;2.88;;;13.30;70.60;;;;;;5071546;28;20047;-70
2020/12/31 13:23:10;;;;;;;11.40;3.20;;;13.20;68.70;;;;;;5071493;28;20041;-71
2020/12/31 13:26:14;;;;;;;10.07;4.05;;;13.10;70.30;;;;;;5070918;28;20623;-71
2020/12/31 13:29:18;;;;;;;7.45;2.92;;;13.20;74.10;;;;;;5071675;28;20047;-71
2020/12/31 13:32:25;;;;;;;9.85;4.43;;;13.20;70.70;;;;;;5071301;28;20036;-71
2020/12/31 13:35:32;;;;;;;10.35;5.35;;;13.10;69.80;;;;;;5071261;28;20037;-71
2020/12/31 13:38:36;;;;;;;11.65;3.30;;;13.10;70.00;;;;;;5071111;28;20051;-71
2020/12/31 13:41:40;;;;;;;10.32;4.13;;;13.10;71.40;;;;;;5058539;28;20099;-71
2020/12/31 13:44:44;;;;;;;11.77;4.97;;;13.10;70.60;;;;;;5071375;28;20055;-70
2020/12/31 13:47:48;;;;;;;7.70;2.88;;;13.10;71.50;;;;;;5058735;28;20047;-69
2020/12/31 13:50:52;;;;;;;11.07;3.28;;;13.10;70.80;;;;;;5070615;28;20037;-71
2020/12/31 13:53:56;;;;;;;5.25;2.40;;;13.10;71.20;;;;;;5070749;28;20047;-70
2020/12/31 13:57:00;;;;;;;7.07;3.20;;;13.10;69.90;;;;;;5070837;28;20407;-70
2020/12/31 14:00:05;;;;;;;33.03;17.48;;;13.10;71.10;;;;;;5070707;28;20507;-70
2020/12/31 14:03:10;;;;;;;9.07;4.40;;;13.20;75.30;;;;;;5070994;28;20419;-71
2020/12/31 14:06:15;;;;;;;9.40;5.32;;;13.10;68.90;;;;;;5070876;28;20040;-71
2020/12/31 14:09:20;;;;;;;13.65;6.07;;;13.10;70.00;;;;;;5070831;28;20067;-71
2020/12/31 14:12:24;;;;;;;10.15;5.95;;;13.10;70.30;;;;;;5071040;28;20048;-72
2020/12/31 14:15:29;;;;;;;16.35;5.15;;;13.00;69.00;;;;;;5071116;28;20071;-72
2020/12/31 14:18:33;;;;;;;14.93;4.05;;;12.90;70.20;;;;;;5069973;28;20043;-71
2020/12/31 14:21:37;;;;;;;9.45;4.75;;;12.90;70.40;;;;;;5070979;28;20419;-72
2020/12/31 14:24:41;;;;;;;12.18;4.18;;;12.90;69.80;;;;;;5070861;28;20036;-72
2020/12/31 14:27:45;;;;;;;5.90;3.25;;;12.80;69.40;;;;;;5070705;28;20400;-71
2020/12/31 14:30:50;;;;;;;10.43;3.70;;;12.70;69.80;;;;;;5070581;28;20044;-71
2020/12/31 14:33:54;;;;;;;13.98;5.20;;;12.70;70.00;;;;;;5070904;28;20088;-72
2020/12/31 14:36:58;;;;;;;12.52;6.18;;;12.70;70.00;;;;;;5069702;28;20475;-72
2020/12/31 14:40:04;;;;;;;12.88;6.32;;;12.70;69.50;;;;;;5070764;28;20055;-72
2020/12/31 14:43:08;;;;;;;13.00;6.75;;;12.70;70.70;;;;;;5070474;28;20427;-72
2020/12/31 14:46:13;;;;;;;12.13;5.63;;;12.70;70.60;;;;;;5070642;28;20511;-72
2020/12/31 14:49:17;;;;;;;11.93;4.43;;;12.70;70.70;;;;;;5070307;28;20039;-72
2020/12/31 14:52:21;;;;;;;147.05;91.85;;;12.60;71.10;;;;;;5070247;28;20052;-70
2020/12/31 14:55:25;;;;;;;11.05;6.30;;;12.60;71.90;;;;;;5070741;28;20043;-71
2020/12/31 14:58:29;;;;;;;12.05;5.63;;;12.60;70.60;;;;;;5070372;28;20056;-71
2020/12/31 15:01:34;;;;;;;13.77;5.72;;;12.50;70.90;;;;;;5069757;28;20107;-71
2020/12/31 15:04:38;;;;;;;12.60;6.95;;;12.40;71.30;;;;;;5074240;28;20048;-72
2020/12/31 15:07:42;;;;;;;22.13;9.38;;;12.40;71.10;;;;;;5073852;28;20158;-72
2020/12/31 15:10:46;;;;;;;24.65;13.50;;;12.30;71.90;;;;;;5073912;28;20399;-72
2020/12/31 15:13:50;;;;;;;31.23;15.48;;;12.20;72.20;;;;;;5073438;28;20616;-71
2020/12/31 15:16:54;;;;;;;18.33;12.15;;;12.20;72.50;;;;;;5073813;28;20055;-71
2020/12/31 15:19:58;;;;;;;16.40;9.65;;;12.20;72.30;;;;;;5073792;28;20048;-71
2020/12/31 15:23:04;;;;;;;13.50;8.85;;;12.10;72.10;;;;;;5073823;28;20391;-71
2020/12/31 15:26:09;;;;;;;25.02;10.05;;;12.10;72.20;;;;;;5073263;28;20060;-71
2020/12/31 15:29:14;;;;;;;35.28;21.35;;;12.10;72.90;;;;;;5073452;28;20059;-72
2020/12/31 15:32:23;;;;;;;25.55;12.68;;;12.00;73.50;;;;;;5073277;28;20055;-71
2020/12/31 15:35:30;;;;;;;22.42;15.65;;;12.00;73.70;;;;;;5072321;28;20044;-71
2020/12/31 15:38:34;;;;;;;27.58;16.17;;;12.00;73.60;;;;;;5073146;28;20051;-71
2020/12/31 15:41:39;;;;;;;31.08;15.75;;;11.90;73.90;;;;;;5073355;28;20044;-71
2020/12/31 15:44:44;;;;;;;40.75;24.58;;;11.80;73.90;;;;;;5073185;28;20047;-71
2020/12/31 15:47:48;;;;;;;50.08;28.02;;;11.80;75.00;;;;;;5073030;28;20036;-73
2020/12/31 15:50:52;;;;;;;44.10;19.35;;;11.80;75.50;;;;;;5073029;28;20051;-72
2020/12/31 15:53:56;;;;;;;41.83;19.00;;;11.80;77.90;;;;;;5073547;28;20063;-72
2020/12/31 15:57:00;;;;;;;26.38;17.33;;;11.70;77.50;;;;;;5073021;28;20060;-69
2020/12/31 16:00:04;;;;;;;33.25;18.35;;;11.70;81.40;;;;;;5073015;28;20503;-70
2020/12/31 16:03:17;;;;;;;39.30;16.40;;;11.90;80.20;;;;;;5072830;28;20073;-71
2020/12/31 16:06:21;;;;;;;46.38;26.35;;;11.80;78.90;;;;;;5073172;28;20055;-72
2020/12/31 16:09:25;;;;;;;81.55;38.45;;;11.60;79.10;;;;;;5072340;28;20035;-72
2020/12/31 16:12:29;;;;;;;105.68;68.93;;;11.30;78.80;;;;;;5072936;28;20051;-71
2020/12/31 16:15:33;;;;;;;32.05;15.45;;;11.30;82.60;;;;;;5072949;28;20040;-72
2020/12/31 16:18:39;;;;;;;30.08;14.90;;;11.40;80.70;;;;;;5073264;28;20056;-71
2020/12/31 16:21:44;;;;;;;32.40;15.02;;;11.30;80.30;;;;;;5071669;28;20064;-77
2020/12/31 16:24:53;;;;;;;27.58;15.82;;;11.20;80.10;;;;;;5071795;28;20063;-77
2020/12/31 16:27:57;;;;;;;40.70;26.13;;;11.10;80.40;;;;;;5072538;28;20064;-77
2020/12/31 16:31:02;;;;;;;32.13;18.60;;;11.00;80.00;;;;;;5072422;28;20075;-77
2020/12/31 16:34:07;;;;;;;36.95;23.75;;;11.00;80.80;;;;;;5060187;28;20107;-77
2020/12/31 16:37:16;;;;;;;32.28;20.20;;;11.00;81.00;;;;;;5072196;28;20057;-78
2020/12/31 16:40:20;;;;;;;33.85;20.08;;;10.90;81.80;;;;;;5072181;28;20052;-78
2020/12/31 16:43:25;;;;;;;36.95;22.77;;;10.80;82.30;;;;;;5071715;28;20215;-78
2020/12/31 16:46:29;;;;;;;41.95;23.45;;;10.60;82.80;;;;;;5072228;28;20044;-78
2020/12/31 16:49:33;;;;;;;59.15;32.83;;;10.50;83.10;;;;;;5072153;28;20043;-78
2020/12/31 16:52:37;;;;;;;67.50;44.05;;;10.40;83.30;;;;;;5072286;28;20043;-78
2020/12/31 16:55:41;;;;;;;85.03;56.28;;;10.40;83.20;;;;;;5071318;28;20048;-78
2020/12/31 16:58:44;;;;;;;89.72;51.17;;;10.40;82.50;;;;;;5072220;28;20055;-78
2020/12/31 17:01:49;;;;;;;101.22;62.03;;;10.30;83.30;;;;;;5071880;28;20395;-78
2020/12/31 17:04:53;;;;;;;121.28;73.07;;;10.30;83.00;;;;;;5072179;28;20047;-78
2020/12/31 17:07:57;;;;;;;116.13;76.97;;;10.20;83.40;;;;;;5072203;28;20380;-77
2020/12/31 17:11:03;;;;;;;110.60;69.10;;;10.20;83.50;;;;;;5071945;28;20039;-77
2020/12/31 17:14:09;;;;;;;121.13;77.28;;;10.10;84.10;;;;;;5072230;28;20035;-77
2020/12/31 17:17:13;;;;;;;183.45;112.22;;;10.00;84.60;;;;;;5070874;28;20066;-77
2020/12/31 17:20:17;;;;;;;125.85;83.45;;;9.90;84.10;;;;;;5071922;28;20044;-76
2020/12/31 17:23:24;;;;;;;138.25;89.45;;;9.90;84.80;;;;;;5071586;28;20043;-77
2020/12/31 17:26:28;;;;;;;136.07;89.80;;;9.90;84.90;;;;;;5070725;28;20519;-76
2020/12/31 17:29:32;;;;;;;148.45;95.68;;;9.90;83.80;;;;;;5071871;28;20055;-77
2020/12/31 17:32:37;;;;;;;129.45;83.93;;;9.90;84.30;;;;;;5072349;28;20047;-77
2020/12/31 17:35:41;;;;;;;104.13;71.13;;;9.90;84.10;;;;;;5071285;28;20035;-77
2020/12/31 17:38:49;;;;;;;103.70;69.88;;;9.90;83.00;;;;;;5071377;28;20059;-77
2020/12/31 17:41:52;;;;;;;106.22;71.03;;;9.80;83.70;;;;;;5071344;28;20031;-79
2020/12/31 17:44:56;;;;;;;117.50;79.93;;;9.80;84.10;;;;;;5071376;28;20039;-78
2020/12/31 17:48:00;;;;;;;128.98;81.57;;;9.80;83.40;;;;;;5071733;28;20063;-77
2020/12/31 17:51:05;;;;;;;189.65;115.65;;;9.60;84.30;;;;;;5071431;28;20047;-78
2020/12/31 17:54:09;;;;;;;140.98;93.03;;;9.40;84.50;;;;;;5071545;28;20043;-78
2020/12/31 17:57:12;;;;;;;125.63;81.75;;;9.40;85.20;;;;;;5070103;28;20123;-80
2020/12/31 18:00:20;;;;;;;115.20;78.68;;;9.50;85.10;;;;;;5071114;28;20056;-78
2020/12/31 18:03:24;;;;;;;119.07;74.18;;;9.50;84.60;;;;;;5058663;28;20051;-78
2020/12/31 18:06:30;;;;;;;118.78;78.63;;;9.40;84.60;;;;;;5070149;28;20036;-79
2020/12/31 18:09:37;;;;;;;125.35;81.45;;;9.40;84.60;;;;;;5070259;28;20039;-78
2020/12/31 18:12:41;;;;;;;132.23;89.72;;;9.30;85.30;;;;;;5070946;28;20051;-78
2020/12/31 18:15:44;;;;;;;148.00;100.55;;;9.30;85.30;;;;;;5070950;28;20403;-79
2020/12/31 18:18:48;;;;;;;120.25;81.47;;;9.20;86.10;;;;;;5071148;28;20119;-79
2020/12/31 18:21:52;;;;;;;125.95;79.28;;;9.20;85.20;;;;;;5071146;28;20499;-78
2020/12/31 18:24:56;;;;;;;123.28;75.68;;;9.20;85.30;;;;;;5071064;28;20048;-78
2020/12/31 18:28:00;;;;;;;103.30;69.43;;;9.00;85.80;;;;;;5071037;28;20055;-77
2020/12/31 18:31:04;;;;;;;103.40;67.35;;;9.00;85.60;;;;;;5071130;28;20048;-78
2020/12/31 18:34:09;;;;;;;94.82;65.50;;;8.70;86.60;;;;;;5070891;28;20043;-78
2020/12/31 18:37:13;;;;;;;125.07;78.30;;;8.60;87.30;;;;;;5071103;28;20624;-78
2020/12/31 18:40:21;;;;;;;104.93;65.97;;;8.50;87.60;;;;;;5075052;28;20039;-78
2020/12/31 18:43:24;;;;;;;90.07;57.65;;;8.60;88.00;;;;;;5075291;28;20047;-77
2020/12/31 18:46:28;;;;;;;78.47;53.08;;;8.70;87.70;;;;;;5074593;28;20060;-78
2020/12/31 18:49:37;;;;;;;79.35;52.30;;;8.80;86.10;;;;;;5074907;28;20044;-77
2020/12/31 18:52:52;;;;;;;74.40;50.72;;;8.90;85.90;;;;;;5074730;28;20043;-77
2020/12/31 18:55:57;;;;;;;67.65;48.58;;;9.00;85.20;;;;;;5062518;28;20043;-78
2020/12/31 18:59:03;;;;;;;87.30;52.35;;;9.00;85.10;;;;;;5074487;28;20399;-79
2020/12/31 19:02:07;;;;;;;85.90;54.00;;;9.10;85.10;;;;;;5073841;28;20036;-78
2020/12/31 19:05:17;;;;;;;84.05;55.55;;;9.20;84.40;;;;;;5074676;28;20047;-78
2020/12/31 19:08:22;;;;;;;83.03;55.92;;;9.20;83.90;;;;;;5073465;28;20503;-78
2020/12/31 19:11:26;;;;;;;81.45;53.75;;;9.20;84.00;;;;;;5074469;28;20491;-78
2020/12/31 19:14:30;;;;;;;85.32;54.47;;;9.20;84.20;;;;;;5074383;28;20043;-78